Flight Track Log - Related Links

Times and Time Zones

All times are in EDT time to prevent confusion due to time zone crossing. See the CTL18 flight status page for this flight to view local times or setup timezone preferences in your user account.

Time Position Orientation Groundspeed Altitude Reporting Facility
EDT Latitude Longitude Course Direction KTS MPH feet Rate Location/Type
Thu 09:21:59 PM 42.2475 -83.5172 329° Northwest 102 117 1,200  Level Cleveland Center
Thu 09:22:35 PM 42.2661 -83.5322 329° Northwest 138 159 1,600 804 Climbing Cleveland Center
Thu 09:23:36 PM 42.2647 -83.5856 268° West 142 163 2,500 836 Climbing Cleveland Center
Thu 09:24:37 PM 42.2408 -83.6181 225° Southwest 132 152 3,300 730 Climbing Cleveland Center
Thu 09:25:31 PM 42.2075 -83.6136 174° South 131 151 3,900 678 Climbing Cleveland Center
Thu 09:26:32 PM 42.1900 -83.5708 119° Southeast 134 154 4,600 469 Climbing Cleveland Center
Thu 09:27:39 PM 42.1556 -83.5328 141° Southeast 154 177 4,900 188 Climbing Cleveland Center
Thu 09:28:40 PM 42.1125 -83.5056 155° Southeast 175 201 5,000 47 Climbing Cleveland Center
Thu 09:29:46 PM 42.0675 -83.4697 149° Southeast 172 198 5,000  Level Cleveland Center
Thu 09:30:47 PM 42.0222 -83.4425 156° South 173 199 5,000  Level Cleveland Center
Thu 09:31:48 PM 41.9944 -83.3883 125° Southeast 172 198 5,000 -50 Level Cleveland Center
Thu 09:32:48 PM 41.9772 -83.3289 111° Southeast 171 197 4,900 -50 Descending Cleveland Center
Thu 09:33:49 PM 41.9597 -83.2722 113° Southeast 172 198 4,900 49 Level Cleveland Center
Thu 09:34:50 PM 41.9425 -83.2072 110° East 174 200 5,000 49 Climbing Cleveland Center
Thu 09:35:51 PM 41.9272 -83.1481 109° East 171 197 5,000  Level Cleveland Center
Thu 09:36:50 PM 41.9094 -83.0972 115° Southeast 173 199 5,000  Level Cleveland Center
Thu 09:37:33 PM 41.8978 -83.0547 110° East 173 199 5,000  Level Cleveland Center
Thu 09:38:33 PM 41.8806 -82.9928 110° East 174 200 5,000  Level Cleveland Center
Thu 09:39:34 PM 41.8589 -82.9194 112° Southeast 175 201 5,000  Level Cleveland Center
Thu 09:40:35 PM 41.8436 -82.8603 109° East 172 198 5,000  Level Cleveland Center
Thu 09:41:35 PM 41.8300 -82.7986 106° East 175 201 5,000  Level Cleveland Center
Thu 09:42:30 PM 41.8103 -82.7450 116° Southeast 178 205 5,000  Level Cleveland Center
Thu 09:43:24 PM 41.7967 -82.6889 108° East 175 201 5,000  Level Cleveland Center
Thu 09:44:31 PM 41.7792 -82.6269 111° Southeast 170 196 5,000 -47 Level Cleveland Center
Thu 09:45:32 PM 41.7614 -82.5650 111° Southeast 174 200 4,900  Descending Cleveland Center
Thu 09:46:38 PM 41.7439 -82.4922 108° East 171 197 5,000 47 Climbing Cleveland Center
Thu 09:47:39 PM 41.7283 -82.4333 109° East 172 198 5,000  Level Cleveland Center
Thu 09:48:40 PM 41.7106 -82.3717 111° Southeast 174 200 5,000  Level Cleveland Center
Thu 09:49:40 PM 41.6947 -82.3128 110° East 170 196 5,000 -52 Level Cleveland Center
Thu 09:50:35 PM 41.6808 -82.2597 109° East 174 200 4,900  Descending Cleveland Center
Thu 09:51:29 PM 41.6628 -82.2036 113° Southeast 176 203 5,000 -149 Climbing Cleveland Center
Thu 09:52:36 PM 41.6431 -82.1336 111° Southeast 188 216 4,600 -328 Descending Cleveland Center
Thu 09:53:37 PM 41.6272 -82.0694 108° East 184 212 4,300 -365 Descending Cleveland Center
Thu 09:54:31 PM 41.6092 -82.0078 111° Southeast 184 212 3,900 -417 Descending Cleveland Center
Thu 09:55:32 PM 41.5911 -81.9464 111° Southeast 183 211 3,500 -443 Descending Cleveland Center
Thu 09:56:33 PM 41.5711 -81.8847 113° Southeast 175 201 3,000 -545 Descending Cleveland Center
Thu 09:57:33 PM 41.5489 -81.8289 118° Southeast 170 196 2,400 -600 Descending Cleveland Center

Login

Don't have an account? Register now (free) for customized features, flight alerts, and more!